Enter the Airport ICAO Code

Search by Airport or City

Current Weather

LEPP | Pamplona Airport

Pamplona, Navarre, Spain

Last Update 13 Minutes Ago

Sky with Few Clouds

Temperature of 19 ēC

Light to Moderate Winds from NorthWest

Temperature

19 ēC

Dew Point Temperature

15 ēC

Relative Humidity

77.73 %

Wind Direction

NorthWest (300ē, Without Significant Variations)

Wind Velocity

11 km/h (06 kt)

Gusts

None

Visibility

Greater than 10 Kilometers

Sea Level Pressure

1014 hPa (Hectopascals)

Layers of Clouds

5% to 30% of Sky Covered with Towering Cumulus from 1524 mts (5000 ft) Above Ground Level.

METAR LEPP 031500Z 30006KT 9999 FEW050TCU 19/15 Q1014

Weather Forecast

LEPP | Pamplona Airport

Pamplona, Navarre, Spain

Forecast valid for the next 24 Hours

From now on it is expected:

Partly Cloudy Sky

Light to Moderate Winds from Variable Directions

From now on it is expected 3 hours with intermittent periods of:

Heavy Hail Fall

In 9 hours it is expected the begining of 5 hours with intermittent periods of:

Mist

In 14 hours it is expected the begining of 4 hours with intermittent periods of:

Rain, Mist

Maximum Temperature

24 ēC in 24 Hours

Minimum Temperature

11 ēC in 15 Hours

TAF LEPP 031400Z 0315/0415 VRB05KT 9999 FEW025 SCT040 TX24/0415Z TN11/0406Z TEMPO 0315/0320 FEW040CB PROB40 TEMPO 0315/0320 VRB15G25KT 3000 TSRA SCT040CB PROB30 TEMPO 0315/0318 1500 +TSRAGR BKN040CB PROB30 TEMPO 0400/0405 3000 BR BKN010 PROB40 TEMPO 0405/0409 3000 RA BR BKN010